Terminal Aerodrome Forecast
Issued by NWS

Home | Current Version | Previous Version | Text Only | Print | Product List | Glossary On
Versions: 1 2 3 4 5 6 7 8 9 10 11 12 13
000
FTUS45 KGGW 292300 CCA
TAFSDY
TAF COR
KSDY 292327Z 3000/3024 VRB04KT P6SM FEW060
     FM301200 14009KT P6SM SCT004
     FM301800 18009KT 6SM -SHRA BKN060
      AMD LTD TO CLD VIS AND WIND=

USA.gov is the U.S. government's official web portal to all federal, state and local government web resources and services.